sensor_id;sensor_type;location;lat;lon;timestamp;P1;durP1;ratioP1;P2;durP2;ratioP2
42964;SDS011;28604;51.204;22.552;2022-09-12T00:02:23;8.18;;;4.75;;
42964;SDS011;28604;51.204;22.552;2022-09-12T00:04:50;6.55;;;4.53;;
42964;SDS011;28604;51.204;22.552;2022-09-12T00:07:16;6.32;;;4.50;;
42964;SDS011;28604;51.204;22.552;2022-09-12T00:09:43;4.55;;;3.95;;
42964;SDS011;28604;51.204;22.552;2022-09-12T00:12:09;5.28;;;4.40;;
42964;SDS011;28604;51.204;22.552;2022-09-12T00:14:36;10.27;;;4.47;;
42964;SDS011;28604;51.204;22.552;2022-09-12T00:17:02;9.07;;;5.43;;
42964;SDS011;28604;51.204;22.552;2022-09-12T00:19:29;6.00;;;5.00;;
42964;SDS011;28604;51.204;22.552;2022-09-12T00:21:56;7.00;;;4.43;;
42964;SDS011;28604;51.204;22.552;2022-09-12T00:24:22;10.35;;;5.10;;
42964;SDS011;28604;51.204;22.552;2022-09-12T00:26:49;5.78;;;4.40;;
42964;SDS011;28604;51.204;22.552;2022-09-12T00:29:16;8.90;;;5.28;;
42964;SDS011;28604;51.204;22.552;2022-09-12T00:31:43;6.15;;;5.47;;
42964;SDS011;28604;51.204;22.552;2022-09-12T00:34:09;6.40;;;4.82;;
42964;SDS011;28604;51.204;22.552;2022-09-12T00:36:37;5.22;;;4.80;;
42964;SDS011;28604;51.204;22.552;2022-09-12T00:39:04;10.32;;;5.35;;
42964;SDS011;28604;51.204;22.552;2022-09-12T00:41:31;7.05;;;5.97;;
42964;SDS011;28604;51.204;22.552;2022-09-12T00:43:59;6.90;;;6.20;;
42964;SDS011;28604;51.204;22.552;2022-09-12T00:49:15;7.13;;;6.40;;
42964;SDS011;28604;51.204;22.552;2022-09-12T00:51:48;7.82;;;7.03;;
42964;SDS011;28604;51.204;22.552;2022-09-12T00:54:18;10.70;;;7.72;;
42964;SDS011;28604;51.204;22.552;2022-09-12T00:56:47;8.88;;;7.95;;
42964;SDS011;28604;51.204;22.552;2022-09-12T00:59:21;10.85;;;8.50;;
42964;SDS011;28604;51.204;22.552;2022-09-12T01:01:50;14.75;;;8.07;;
42964;SDS011;28604;51.204;22.552;2022-09-12T01:04:18;8.35;;;7.53;;
42964;SDS011;28604;51.204;22.552;2022-09-12T01:06:45;10.02;;;8.68;;
42964;SDS011;28604;51.204;22.552;2022-09-12T01:09:14;13.10;;;8.38;;
42964;SDS011;28604;51.204;22.552;2022-09-12T01:11:41;8.73;;;7.40;;
42964;SDS011;28604;51.204;22.552;2022-09-12T01:14:11;9.13;;;7.75;;
42964;SDS011;28604;51.204;22.552;2022-09-12T01:16:38;9.82;;;6.80;;
42964;SDS011;28604;51.204;22.552;2022-09-12T01:21:49;8.40;;;6.95;;
42964;SDS011;28604;51.204;22.552;2022-09-12T01:34:48;7.28;;;6.20;;
42964;SDS011;28604;51.204;22.552;2022-09-12T01:45:04;7.47;;;6.03;;
42964;SDS011;28604;51.204;22.552;2022-09-12T01:50:07;9.52;;;6.38;;
42964;SDS011;28604;51.204;22.552;2022-09-12T01:52:41;6.18;;;5.57;;
42964;SDS011;28604;51.204;22.552;2022-09-12T01:55:11;8.27;;;6.60;;
42964;SDS011;28604;51.204;22.552;2022-09-12T01:57:49;6.10;;;5.60;;
42964;SDS011;28604;51.204;22.552;2022-09-12T02:00:17;6.50;;;5.90;;
42964;SDS011;28604;51.204;22.552;2022-09-12T02:05:17;7.00;;;6.35;;
42964;SDS011;28604;51.204;22.552;2022-09-12T02:07:51;10.02;;;6.28;;
42964;SDS011;28604;51.204;22.552;2022-09-12T02:12:49;6.88;;;6.18;;
42964;SDS011;28604;51.204;22.552;2022-09-12T02:15:17;5.65;;;4.88;;
42964;SDS011;28604;51.204;22.552;2022-09-12T02:17:46;5.90;;;5.40;;
42964;SDS011;28604;51.204;22.552;2022-09-12T02:20:30;5.63;;;5.22;;
42964;SDS011;28604;51.204;22.552;2022-09-12T02:22:59;6.60;;;5.15;;
42964;SDS011;28604;51.204;22.552;2022-09-12T02:25:25;6.70;;;5.80;;
42964;SDS011;28604;51.204;22.552;2022-09-12T02:27:57;7.15;;;4.95;;
42964;SDS011;28604;51.204;22.552;2022-09-12T02:30:25;6.63;;;5.63;;
42964;SDS011;28604;51.204;22.552;2022-09-12T02:32:59;5.88;;;5.05;;
42964;SDS011;28604;51.204;22.552;2022-09-12T02:40:28;9.90;;;5.78;;
42964;SDS011;28604;51.204;22.552;2022-09-12T02:42:55;6.55;;;5.50;;
42964;SDS011;28604;51.204;22.552;2022-09-12T02:45:22;5.97;;;5.57;;
42964;SDS011;28604;51.204;22.552;2022-09-12T02:47:53;11.20;;;4.97;;
42964;SDS011;28604;51.204;22.552;2022-09-12T02:50:22;5.40;;;4.95;;
42964;SDS011;28604;51.204;22.552;2022-09-12T02:52:49;8.23;;;5.10;;
42964;SDS011;28604;51.204;22.552;2022-09-12T02:55:18;4.88;;;4.20;;
42964;SDS011;28604;51.204;22.552;2022-09-12T02:57:44;5.00;;;4.32;;
42964;SDS011;28604;51.204;22.552;2022-09-12T03:00:11;5.13;;;4.20;;
42964;SDS011;28604;51.204;22.552;2022-09-12T03:05:30;7.13;;;4.22;;
42964;SDS011;28604;51.204;22.552;2022-09-12T03:18:41;5.63;;;4.22;;
42964;SDS011;28604;51.204;22.552;2022-09-12T03:21:26;4.75;;;4.18;;
42964;SDS011;28604;51.204;22.552;2022-09-12T03:24:06;4.28;;;3.92;;
42964;SDS011;28604;51.204;22.552;2022-09-12T03:29:04;6.78;;;5.80;;
42964;SDS011;28604;51.204;22.552;2022-09-12T03:31:32;5.60;;;4.63;;
42964;SDS011;28604;51.204;22.552;2022-09-12T03:33:59;4.22;;;3.92;;
42964;SDS011;28604;51.204;22.552;2022-09-12T03:36:27;4.50;;;4.13;;
42964;SDS011;28604;51.204;22.552;2022-09-12T03:38:54;3.72;;;3.33;;
42964;SDS011;28604;51.204;22.552;2022-09-12T03:41:20;4.82;;;4.05;;
42964;SDS011;28604;51.204;22.552;2022-09-12T03:43:47;6.97;;;4.60;;
42964;SDS011;28604;51.204;22.552;2022-09-12T03:46:13;3.40;;;3.13;;
42964;SDS011;28604;51.204;22.552;2022-09-12T03:48:40;4.95;;;3.67;;
42964;SDS011;28604;51.204;22.552;2022-09-12T03:51:07;3.05;;;2.80;;
42964;SDS011;28604;51.204;22.552;2022-09-12T03:53:34;3.08;;;2.90;;
42964;SDS011;28604;51.204;22.552;2022-09-12T03:56:05;3.30;;;3.10;;
42964;SDS011;28604;51.204;22.552;2022-09-12T03:58:31;5.90;;;2.80;;
42964;SDS011;28604;51.204;22.552;2022-09-12T04:01:00;2.60;;;2.40;;
42964;SDS011;28604;51.204;22.552;2022-09-12T04:03:26;2.75;;;2.55;;
42964;SDS011;28604;51.204;22.552;2022-09-12T04:05:56;2.40;;;2.30;;
42964;SDS011;28604;51.204;22.552;2022-09-12T04:08:22;3.60;;;2.70;;
42964;SDS011;28604;51.204;22.552;2022-09-12T04:10:51;3.30;;;2.20;;
42964;SDS011;28604;51.204;22.552;2022-09-12T04:13:17;2.20;;;2.10;;
42964;SDS011;28604;51.204;22.552;2022-09-12T04:15:54;2.30;;;2.15;;
42964;SDS011;28604;51.204;22.552;2022-09-12T04:18:20;2.22;;;2.03;;
42964;SDS011;28604;51.204;22.552;2022-09-12T04:20:47;3.33;;;1.70;;
42964;SDS011;28604;51.204;22.552;2022-09-12T04:23:13;2.90;;;1.77;;
42964;SDS011;28604;51.204;22.552;2022-09-12T04:25:40;2.25;;;2.15;;
42964;SDS011;28604;51.204;22.552;2022-09-12T04:28:06;1.67;;;1.65;;
42964;SDS011;28604;51.204;22.552;2022-09-12T04:30:33;1.80;;;1.70;;
42964;SDS011;28604;51.204;22.552;2022-09-12T04:32:59;1.73;;;1.65;;
42964;SDS011;28604;51.204;22.552;2022-09-12T04:35:26;1.90;;;1.80;;
42964;SDS011;28604;51.204;22.552;2022-09-12T04:37:53;2.05;;;1.75;;
42964;SDS011;28604;51.204;22.552;2022-09-12T04:40:19;2.33;;;1.45;;
42964;SDS011;28604;51.204;22.552;2022-09-12T04:42:46;1.38;;;1.30;;
42964;SDS011;28604;51.204;22.552;2022-09-12T04:45:12;2.88;;;2.00;;
42964;SDS011;28604;51.204;22.552;2022-09-12T04:47:39;1.48;;;1.35;;
42964;SDS011;28604;51.204;22.552;2022-09-12T04:50:05;2.10;;;2.00;;
42964;SDS011;28604;51.204;22.552;2022-09-12T04:52:32;1.75;;;1.65;;
42964;SDS011;28604;51.204;22.552;2022-09-12T04:54:58;1.63;;;1.38;;
42964;SDS011;28604;51.204;22.552;2022-09-12T04:57:25;1.63;;;1.40;;
42964;SDS011;28604;51.204;22.552;2022-09-12T04:59:51;1.10;;;1.00;;
42964;SDS011;28604;51.204;22.552;2022-09-12T05:02:18;1.02;;;1.02;;
42964;SDS011;28604;51.204;22.552;2022-09-12T05:04:45;2.58;;;1.60;;
42964;SDS011;28604;51.204;22.552;2022-09-12T05:07:11;2.47;;;1.40;;
42964;SDS011;28604;51.204;22.552;2022-09-12T05:09:37;1.00;;;1.00;;
42964;SDS011;28604;51.204;22.552;2022-09-12T05:12:04;1.20;;;1.20;;
42964;SDS011;28604;51.204;22.552;2022-09-12T05:14:32;0.80;;;0.80;;
42964;SDS011;28604;51.204;22.552;2022-09-12T05:16:59;0.70;;;0.70;;
42964;SDS011;28604;51.204;22.552;2022-09-12T05:19:26;1.83;;;0.98;;
42964;SDS011;28604;51.204;22.552;2022-09-12T05:21:53;1.90;;;0.82;;
42964;SDS011;28604;51.204;22.552;2022-09-12T05:24:19;0.90;;;0.90;;
42964;SDS011;28604;51.204;22.552;2022-09-12T05:26:46;1.58;;;1.58;;
42964;SDS011;28604;51.204;22.552;2022-09-12T05:29:12;1.00;;;1.00;;
42964;SDS011;28604;51.204;22.552;2022-09-12T05:31:39;1.20;;;1.10;;
42964;SDS011;28604;51.204;22.552;2022-09-12T05:34:05;1.70;;;1.58;;
42964;SDS011;28604;51.204;22.552;2022-09-12T05:36:33;1.20;;;1.20;;
42964;SDS011;28604;51.204;22.552;2022-09-12T05:38:59;1.42;;;1.42;;
42964;SDS011;28604;51.204;22.552;2022-09-12T05:41:27;3.78;;;1.90;;
42964;SDS011;28604;51.204;22.552;2022-09-12T05:44:01;1.42;;;1.33;;
42964;SDS011;28604;51.204;22.552;2022-09-12T05:46:29;1.55;;;1.20;;
42964;SDS011;28604;51.204;22.552;2022-09-12T05:48:56;1.10;;;1.10;;
42964;SDS011;28604;51.204;22.552;2022-09-12T05:51:24;1.60;;;1.17;;
42964;SDS011;28604;51.204;22.552;2022-09-12T05:53:52;1.35;;;1.23;;
42964;SDS011;28604;51.204;22.552;2022-09-12T05:56:20;1.10;;;1.10;;
42964;SDS011;28604;51.204;22.552;2022-09-12T05:58:56;1.98;;;1.45;;
42964;SDS011;28604;51.204;22.552;2022-09-12T06:01:24;4.82;;;1.52;;
42964;SDS011;28604;51.204;22.552;2022-09-12T06:03:52;1.95;;;1.20;;
42964;SDS011;28604;51.204;22.552;2022-09-12T06:06:20;2.67;;;1.70;;
42964;SDS011;28604;51.204;22.552;2022-09-12T06:08:48;5.05;;;1.67;;
42964;SDS011;28604;51.204;22.552;2022-09-12T06:11:15;1.85;;;1.40;;
42964;SDS011;28604;51.204;22.552;2022-09-12T06:13:42;1.30;;;1.30;;
42964;SDS011;28604;51.204;22.552;2022-09-12T06:16:13;1.30;;;1.20;;
42964;SDS011;28604;51.204;22.552;2022-09-12T06:18:40;1.08;;;1.05;;
42964;SDS011;28604;51.204;22.552;2022-09-12T06:21:07;0.70;;;0.70;;
42964;SDS011;28604;51.204;22.552;2022-09-12T06:23:34;1.40;;;1.20;;
42964;SDS011;28604;51.204;22.552;2022-09-12T06:26:01;1.33;;;1.23;;
42964;SDS011;28604;51.204;22.552;2022-09-12T06:28:28;1.83;;;1.73;;
42964;SDS011;28604;51.204;22.552;2022-09-12T06:31:05;1.30;;;1.30;;
42964;SDS011;28604;51.204;22.552;2022-09-12T06:33:35;3.00;;;1.60;;
42964;SDS011;28604;51.204;22.552;2022-09-12T06:36:06;1.85;;;1.10;;
42964;SDS011;28604;51.204;22.552;2022-09-12T06:38:33;1.83;;;1.73;;
42964;SDS011;28604;51.204;22.552;2022-09-12T06:41:01;1.77;;;1.48;;
42964;SDS011;28604;51.204;22.552;2022-09-12T06:43:29;1.90;;;1.80;;
42964;SDS011;28604;51.204;22.552;2022-09-12T06:45:56;1.80;;;1.70;;
42964;SDS011;28604;51.204;22.552;2022-09-12T06:48:22;2.28;;;1.50;;
42964;SDS011;28604;51.204;22.552;2022-09-12T06:50:59;1.10;;;1.10;;
42964;SDS011;28604;51.204;22.552;2022-09-12T06:53:26;5.88;;;2.28;;
42964;SDS011;28604;51.204;22.552;2022-09-12T06:55:54;1.70;;;1.17;;
42964;SDS011;28604;51.204;22.552;2022-09-12T06:58:21;1.30;;;1.30;;
42964;SDS011;28604;51.204;22.552;2022-09-12T07:00:47;1.30;;;1.30;;
42964;SDS011;28604;51.204;22.552;2022-09-12T07:03:13;1.05;;;1.05;;
42964;SDS011;28604;51.204;22.552;2022-09-12T07:05:40;10.48;;;1.67;;
42964;SDS011;28604;51.204;22.552;2022-09-12T07:08:07;1.95;;;1.58;;
42964;SDS011;28604;51.204;22.552;2022-09-12T07:10:33;1.00;;;1.00;;
42964;SDS011;28604;51.204;22.552;2022-09-12T07:13:00;3.15;;;1.67;;
42964;SDS011;28604;51.204;22.552;2022-09-12T07:15:26;1.50;;;1.40;;
42964;SDS011;28604;51.204;22.552;2022-09-12T07:17:53;1.48;;;1.48;;
42964;SDS011;28604;51.204;22.552;2022-09-12T07:20:19;1.60;;;1.52;;
42964;SDS011;28604;51.204;22.552;2022-09-12T07:22:45;2.72;;;1.83;;
42964;SDS011;28604;51.204;22.552;2022-09-12T07:25:12;1.70;;;1.60;;
42964;SDS011;28604;51.204;22.552;2022-09-12T07:27:38;2.20;;;2.10;;
42964;SDS011;28604;51.204;22.552;2022-09-12T07:30:05;3.20;;;1.70;;
42964;SDS011;28604;51.204;22.552;2022-09-12T07:32:32;3.10;;;1.80;;
42964;SDS011;28604;51.204;22.552;2022-09-12T07:34:59;2.35;;;1.92;;
42964;SDS011;28604;51.204;22.552;2022-09-12T07:37:25;2.25;;;2.15;;
42964;SDS011;28604;51.204;22.552;2022-09-12T07:39:53;5.75;;;2.55;;
42964;SDS011;28604;51.204;22.552;2022-09-12T07:42:20;2.75;;;2.55;;
42964;SDS011;28604;51.204;22.552;2022-09-12T07:44:46;4.95;;;2.65;;
42964;SDS011;28604;51.204;22.552;2022-09-12T07:47:13;2.13;;;2.03;;
42964;SDS011;28604;51.204;22.552;2022-09-12T07:49:39;4.00;;;2.55;;
42964;SDS011;28604;51.204;22.552;2022-09-12T07:52:06;5.00;;;2.63;;
42964;SDS011;28604;51.204;22.552;2022-09-12T07:54:33;3.13;;;2.88;;
42964;SDS011;28604;51.204;22.552;2022-09-12T07:56:59;2.90;;;2.65;;
42964;SDS011;28604;51.204;22.552;2022-09-12T07:59:26;2.80;;;2.70;;
42964;SDS011;28604;51.204;22.552;2022-09-12T08:01:52;2.58;;;2.40;;
42964;SDS011;28604;51.204;22.552;2022-09-12T08:04:19;3.30;;;2.90;;
42964;SDS011;28604;51.204;22.552;2022-09-12T08:06:45;6.20;;;3.08;;
42964;SDS011;28604;51.204;22.552;2022-09-12T08:09:12;3.00;;;2.75;;
42964;SDS011;28604;51.204;22.552;2022-09-12T08:11:41;5.90;;;2.58;;
42964;SDS011;28604;51.204;22.552;2022-09-12T08:14:08;6.43;;;3.08;;
42964;SDS011;28604;51.204;22.552;2022-09-12T08:16:35;3.45;;;2.95;;
42964;SDS011;28604;51.204;22.552;2022-09-12T08:19:02;3.42;;;3.00;;
42964;SDS011;28604;51.204;22.552;2022-09-12T08:21:29;2.92;;;2.83;;
42964;SDS011;28604;51.204;22.552;2022-09-12T08:24:00;3.30;;;3.00;;
42964;SDS011;28604;51.204;22.552;2022-09-12T08:26:28;3.22;;;3.03;;
42964;SDS011;28604;51.204;22.552;2022-09-12T08:28:55;4.07;;;3.08;;
42964;SDS011;28604;51.204;22.552;2022-09-12T08:33:56;3.20;;;3.08;;
42964;SDS011;28604;51.204;22.552;2022-09-12T08:36:24;3.47;;;3.17;;
42964;SDS011;28604;51.204;22.552;2022-09-12T08:38:56;2.83;;;2.65;;
42964;SDS011;28604;51.204;22.552;2022-09-12T08:41:37;3.35;;;3.15;;
42964;SDS011;28604;51.204;22.552;2022-09-12T08:49:06;3.45;;;3.25;;
42964;SDS011;28604;51.204;22.552;2022-09-12T08:51:35;4.00;;;3.70;;
42964;SDS011;28604;51.204;22.552;2022-09-12T08:54:02;3.75;;;3.38;;
42964;SDS011;28604;51.204;22.552;2022-09-12T08:56:30;3.53;;;3.30;;
42964;SDS011;28604;51.204;22.552;2022-09-12T08:59:00;4.13;;;2.80;;
42964;SDS011;28604;51.204;22.552;2022-09-12T09:01:29;3.33;;;3.13;;
42964;SDS011;28604;51.204;22.552;2022-09-12T09:09:14;3.53;;;3.17;;
42964;SDS011;28604;51.204;22.552;2022-09-12T09:14:20;3.92;;;3.63;;
42964;SDS011;28604;51.204;22.552;2022-09-12T09:17:09;3.63;;;3.42;;
42964;SDS011;28604;51.204;22.552;2022-09-12T09:19:37;3.83;;;3.42;;
42964;SDS011;28604;51.204;22.552;2022-09-12T09:22:09;3.10;;;2.85;;
42964;SDS011;28604;51.204;22.552;2022-09-12T09:24:39;6.57;;;3.47;;
42964;SDS011;28604;51.204;22.552;2022-09-12T09:27:20;3.53;;;3.33;;
42964;SDS011;28604;51.204;22.552;2022-09-12T09:29:52;3.90;;;3.60;;
42964;SDS011;28604;51.204;22.552;2022-09-12T09:32:25;3.00;;;2.80;;
42964;SDS011;28604;51.204;22.552;2022-09-12T09:34:51;3.10;;;3.00;;
42964;SDS011;28604;51.204;22.552;2022-09-12T09:37:19;4.80;;;3.47;;
42964;SDS011;28604;51.204;22.552;2022-09-12T09:45:02;3.38;;;3.10;;
42964;SDS011;28604;51.204;22.552;2022-09-12T09:47:28;4.05;;;3.42;;
42964;SDS011;28604;51.204;22.552;2022-09-12T09:49:55;4.15;;;3.75;;
42964;SDS011;28604;51.204;22.552;2022-09-12T09:52:25;4.43;;;3.83;;
42964;SDS011;28604;51.204;22.552;2022-09-12T09:54:58;4.50;;;3.97;;
42964;SDS011;28604;51.204;22.552;2022-09-12T10:05:24;4.75;;;4.25;;
42964;SDS011;28604;51.204;22.552;2022-09-12T10:07:50;4.03;;;3.63;;
42964;SDS011;28604;51.204;22.552;2022-09-12T10:10:18;5.10;;;3.45;;
42964;SDS011;28604;51.204;22.552;2022-09-12T10:12:47;7.20;;;3.97;;
42964;SDS011;28604;51.204;22.552;2022-09-12T10:15:17;3.60;;;3.30;;
42964;SDS011;28604;51.204;22.552;2022-09-12T10:17:45;3.78;;;3.38;;
42964;SDS011;28604;51.204;22.552;2022-09-12T10:20:35;4.25;;;3.85;;
42964;SDS011;28604;51.204;22.552;2022-09-12T10:25:46;4.78;;;4.35;;
42964;SDS011;28604;51.204;22.552;2022-09-12T10:28:19;5.70;;;3.88;;
42964;SDS011;28604;51.204;22.552;2022-09-12T10:30:50;5.25;;;3.90;;
42964;SDS011;28604;51.204;22.552;2022-09-12T10:33:17;5.53;;;3.92;;
42964;SDS011;28604;51.204;22.552;2022-09-12T10:35:45;4.00;;;3.70;;
42964;SDS011;28604;51.204;22.552;2022-09-12T10:38:19;6.53;;;4.05;;
42964;SDS011;28604;51.204;22.552;2022-09-12T10:40:53;5.85;;;3.78;;
42964;SDS011;28604;51.204;22.552;2022-09-12T10:43:33;4.88;;;3.97;;
42964;SDS011;28604;51.204;22.552;2022-09-12T10:48:42;5.93;;;4.43;;
42964;SDS011;28604;51.204;22.552;2022-09-12T10:53:56;5.10;;;3.53;;
42964;SDS011;28604;51.204;22.552;2022-09-12T10:56:28;5.03;;;4.28;;
42964;SDS011;28604;51.204;22.552;2022-09-12T10:59:14;6.50;;;4.28;;
42964;SDS011;28604;51.204;22.552;2022-09-12T11:04:30;4.50;;;4.10;;
42964;SDS011;28604;51.204;22.552;2022-09-12T11:09:48;3.65;;;3.33;;
42964;SDS011;28604;51.204;22.552;2022-09-12T11:14:55;8.68;;;3.25;;
42964;SDS011;28604;51.204;22.552;2022-09-12T11:20:42;4.20;;;3.85;;
42964;SDS011;28604;51.204;22.552;2022-09-12T11:25:17;3.38;;;3.00;;
42964;SDS011;28604;51.204;22.552;2022-09-12T11:30:12;3.15;;;2.95;;
42964;SDS011;28604;51.204;22.552;2022-09-12T11:32:55;3.35;;;3.15;;
42964;SDS011;28604;51.204;22.552;2022-09-12T11:35:28;6.82;;;2.90;;
42964;SDS011;28604;51.204;22.552;2022-09-12T11:40:28;4.80;;;2.90;;
42964;SDS011;28604;51.204;22.552;2022-09-12T11:43:10;4.05;;;3.40;;
42964;SDS011;28604;51.204;22.552;2022-09-12T11:45:41;7.05;;;3.22;;
42964;SDS011;28604;51.204;22.552;2022-09-12T11:48:11;5.65;;;2.83;;
42964;SDS011;28604;51.204;22.552;2022-09-12T11:50:38;3.97;;;2.67;;
42964;SDS011;28604;51.204;22.552;2022-09-12T11:53:16;2.83;;;2.72;;
42964;SDS011;28604;51.204;22.552;2022-09-12T11:58:48;5.25;;;2.78;;
42964;SDS011;28604;51.204;22.552;2022-09-12T12:01:17;3.30;;;2.83;;
42964;SDS011;28604;51.204;22.552;2022-09-12T12:03:46;3.85;;;2.28;;
42964;SDS011;28604;51.204;22.552;2022-09-12T12:08:46;3.47;;;2.58;;
42964;SDS011;28604;51.204;22.552;2022-09-12T12:11:14;4.35;;;3.10;;
42964;SDS011;28604;51.204;22.552;2022-09-12T12:16:24;3.08;;;2.83;;
42964;SDS011;28604;51.204;22.552;2022-09-12T12:18:55;4.63;;;2.45;;
42964;SDS011;28604;51.204;22.552;2022-09-12T12:21:30;2.90;;;2.08;;
42964;SDS011;28604;51.204;22.552;2022-09-12T12:29:51;3.42;;;3.22;;
42964;SDS011;28604;51.204;22.552;2022-09-12T12:36:55;4.18;;;2.75;;
42964;SDS011;28604;51.204;22.552;2022-09-12T12:39:57;6.55;;;3.10;;
42964;SDS011;28604;51.204;22.552;2022-09-12T12:50:02;2.63;;;2.45;;
42964;SDS011;28604;51.204;22.552;2022-09-12T12:52:31;5.55;;;2.72;;
42964;SDS011;28604;51.204;22.552;2022-09-12T12:54:59;5.10;;;2.50;;
42964;SDS011;28604;51.204;22.552;2022-09-12T13:02:49;3.55;;;2.42;;
42964;SDS011;28604;51.204;22.552;2022-09-12T13:05:19;3.67;;;2.45;;
42964;SDS011;28604;51.204;22.552;2022-09-12T13:07:46;4.45;;;2.90;;
42964;SDS011;28604;51.204;22.552;2022-09-12T13:10:22;4.03;;;3.00;;
42964;SDS011;28604;51.204;22.552;2022-09-12T13:12:49;4.80;;;2.55;;
42964;SDS011;28604;51.204;22.552;2022-09-12T13:18:17;3.90;;;2.95;;
42964;SDS011;28604;51.204;22.552;2022-09-12T13:20:53;4.00;;;3.33;;
42964;SDS011;28604;51.204;22.552;2022-09-12T13:23:25;5.38;;;3.22;;
42964;SDS011;28604;51.204;22.552;2022-09-12T13:25:53;4.78;;;2.38;;
42964;SDS011;28604;51.204;22.552;2022-09-12T13:28:20;6.32;;;2.70;;
42964;SDS011;28604;51.204;22.552;2022-09-12T13:30:58;4.43;;;3.83;;
42964;SDS011;28604;51.204;22.552;2022-09-12T13:43:48;7.03;;;5.22;;
42964;SDS011;28604;51.204;22.552;2022-09-12T13:46:16;8.55;;;5.38;;
42964;SDS011;28604;51.204;22.552;2022-09-12T13:48:44;9.35;;;5.15;;
42964;SDS011;28604;51.204;22.552;2022-09-12T13:51:23;15.75;;;4.90;;
42964;SDS011;28604;51.204;22.552;2022-09-12T13:56:34;5.47;;;4.68;;
42964;SDS011;28604;51.204;22.552;2022-09-12T13:59:11;7.22;;;4.65;;
42964;SDS011;28604;51.204;22.552;2022-09-12T14:01:39;5.20;;;4.70;;
42964;SDS011;28604;51.204;22.552;2022-09-12T14:04:19;5.72;;;4.30;;
42964;SDS011;28604;51.204;22.552;2022-09-12T14:09:38;9.52;;;4.80;;
42964;SDS011;28604;51.204;22.552;2022-09-12T14:12:20;7.13;;;5.18;;
42964;SDS011;28604;51.204;22.552;2022-09-12T14:14:49;4.93;;;4.53;;
42964;SDS011;28604;51.204;22.552;2022-09-12T14:22:16;6.85;;;4.93;;
42964;SDS011;28604;51.204;22.552;2022-09-12T14:24:44;6.88;;;3.95;;
42964;SDS011;28604;51.204;22.552;2022-09-12T14:27:20;5.93;;;4.00;;
42964;SDS011;28604;51.204;22.552;2022-09-12T14:29:52;7.32;;;4.93;;
42964;SDS011;28604;51.204;22.552;2022-09-12T14:32:22;8.73;;;7.82;;
42964;SDS011;28604;51.204;22.552;2022-09-12T14:37:34;5.60;;;4.32;;
42964;SDS011;28604;51.204;22.552;2022-09-12T14:40:01;5.22;;;4.07;;
42964;SDS011;28604;51.204;22.552;2022-09-12T14:42:29;8.55;;;5.55;;
42964;SDS011;28604;51.204;22.552;2022-09-12T14:44:57;9.00;;;4.80;;
42964;SDS011;28604;51.204;22.552;2022-09-12T14:47:26;6.32;;;4.90;;
42964;SDS011;28604;51.204;22.552;2022-09-12T14:49:54;18.42;;;11.85;;
42964;SDS011;28604;51.204;22.552;2022-09-12T14:52:27;13.57;;;9.27;;
42964;SDS011;28604;51.204;22.552;2022-09-12T14:55:02;5.30;;;4.65;;
42964;SDS011;28604;51.204;22.552;2022-09-12T15:02:34;8.30;;;5.30;;
42964;SDS011;28604;51.204;22.552;2022-09-12T15:07:33;15.18;;;8.40;;
42964;SDS011;28604;51.204;22.552;2022-09-12T15:10:03;8.75;;;6.65;;
42964;SDS011;28604;51.204;22.552;2022-09-12T15:12:30;4.25;;;4.05;;
42964;SDS011;28604;51.204;22.552;2022-09-12T15:15:05;4.53;;;4.13;;
42964;SDS011;28604;51.204;22.552;2022-09-12T15:17:32;8.32;;;4.60;;
42964;SDS011;28604;51.204;22.552;2022-09-12T15:19:59;5.80;;;3.63;;
42964;SDS011;28604;51.204;22.552;2022-09-12T15:22:25;8.13;;;3.80;;
42964;SDS011;28604;51.204;22.552;2022-09-12T15:24:52;6.75;;;4.60;;
42964;SDS011;28604;51.204;22.552;2022-09-12T15:27:20;6.22;;;4.43;;
42964;SDS011;28604;51.204;22.552;2022-09-12T15:29:48;11.15;;;5.55;;
42964;SDS011;28604;51.204;22.552;2022-09-12T15:32:21;5.07;;;4.20;;
42964;SDS011;28604;51.204;22.552;2022-09-12T15:34:47;7.57;;;4.28;;
42964;SDS011;28604;51.204;22.552;2022-09-12T15:37:14;4.47;;;4.18;;
42964;SDS011;28604;51.204;22.552;2022-09-12T15:39:40;5.18;;;4.70;;
42964;SDS011;28604;51.204;22.552;2022-09-12T15:42:08;5.13;;;4.57;;
42964;SDS011;28604;51.204;22.552;2022-09-12T15:44:34;11.18;;;5.55;;
42964;SDS011;28604;51.204;22.552;2022-09-12T15:47:03;11.95;;;8.15;;
42964;SDS011;28604;51.204;22.552;2022-09-12T15:49:29;7.88;;;5.15;;
42964;SDS011;28604;51.204;22.552;2022-09-12T15:51:56;10.38;;;5.32;;
42964;SDS011;28604;51.204;22.552;2022-09-12T15:54:23;6.65;;;4.93;;
42964;SDS011;28604;51.204;22.552;2022-09-12T15:56:49;5.80;;;4.75;;
42964;SDS011;28604;51.204;22.552;2022-09-12T15:59:15;5.40;;;4.32;;
42964;SDS011;28604;51.204;22.552;2022-09-12T16:01:41;5.57;;;4.35;;
42964;SDS011;28604;51.204;22.552;2022-09-12T16:04:29;4.97;;;4.55;;
42964;SDS011;28604;51.204;22.552;2022-09-12T16:06:55;7.78;;;4.30;;
42964;SDS011;28604;51.204;22.552;2022-09-12T16:09:21;6.00;;;4.70;;
42964;SDS011;28604;51.204;22.552;2022-09-12T16:11:48;5.53;;;4.22;;
42964;SDS011;28604;51.204;22.552;2022-09-12T16:14:18;5.20;;;4.70;;
42964;SDS011;28604;51.204;22.552;2022-09-12T16:16:45;5.85;;;4.53;;
42964;SDS011;28604;51.204;22.552;2022-09-12T16:19:18;4.30;;;3.90;;
42964;SDS011;28604;51.204;22.552;2022-09-12T16:21:44;8.15;;;5.15;;
42964;SDS011;28604;51.204;22.552;2022-09-12T16:24:10;10.68;;;7.70;;
42964;SDS011;28604;51.204;22.552;2022-09-12T16:26:36;7.75;;;5.32;;
42964;SDS011;28604;51.204;22.552;2022-09-12T16:29:03;5.80;;;4.68;;
42964;SDS011;28604;51.204;22.552;2022-09-12T16:31:29;6.38;;;4.63;;
42964;SDS011;28604;51.204;22.552;2022-09-12T16:33:56;6.60;;;5.15;;
42964;SDS011;28604;51.204;22.552;2022-09-12T16:36:22;5.32;;;4.82;;
42964;SDS011;28604;51.204;22.552;2022-09-12T16:38:49;5.18;;;4.68;;
42964;SDS011;28604;51.204;22.552;2022-09-12T16:41:17;4.63;;;3.72;;
42964;SDS011;28604;51.204;22.552;2022-09-12T16:43:45;3.67;;;3.15;;
42964;SDS011;28604;51.204;22.552;2022-09-12T16:46:16;7.05;;;3.30;;
42964;SDS011;28604;51.204;22.552;2022-09-12T16:48:46;5.40;;;3.90;;
42964;SDS011;28604;51.204;22.552;2022-09-12T16:51:14;3.40;;;3.20;;
42964;SDS011;28604;51.204;22.552;2022-09-12T16:53:41;3.20;;;2.70;;
42964;SDS011;28604;51.204;22.552;2022-09-12T16:56:08;4.70;;;2.95;;
42964;SDS011;28604;51.204;22.552;2022-09-12T16:58:35;3.72;;;3.42;;
42964;SDS011;28604;51.204;22.552;2022-09-12T17:01:04;4.32;;;3.10;;
42964;SDS011;28604;51.204;22.552;2022-09-12T17:03:32;3.22;;;2.88;;
42964;SDS011;28604;51.204;22.552;2022-09-12T17:06:01;2.00;;;1.90;;
42964;SDS011;28604;51.204;22.552;2022-09-12T17:08:35;2.15;;;2.03;;
42964;SDS011;28604;51.204;22.552;2022-09-12T17:11:11;2.53;;;2.28;;
42964;SDS011;28604;51.204;22.552;2022-09-12T17:13:39;1.80;;;1.70;;
42964;SDS011;28604;51.204;22.552;2022-09-12T17:16:06;2.50;;;2.40;;
42964;SDS011;28604;51.204;22.552;2022-09-12T17:18:40;1.88;;;1.85;;
42964;SDS011;28604;51.204;22.552;2022-09-12T17:21:07;1.92;;;1.83;;
42964;SDS011;28604;51.204;22.552;2022-09-12T17:23:35;1.70;;;1.65;;
42964;SDS011;28604;51.204;22.552;2022-09-12T17:26:02;2.00;;;1.42;;
42964;SDS011;28604;51.204;22.552;2022-09-12T17:28:29;2.65;;;2.28;;
42964;SDS011;28604;51.204;22.552;2022-09-12T17:30:59;2.15;;;1.75;;
42964;SDS011;28604;51.204;22.552;2022-09-12T17:33:27;2.13;;;1.60;;
42964;SDS011;28604;51.204;22.552;2022-09-12T17:35:58;4.38;;;4.10;;
42964;SDS011;28604;51.204;22.552;2022-09-12T17:38:25;2.45;;;2.22;;